createdAt,value
2019-05-23T00:01:20.792Z,101425.92
2019-05-23T00:03:59.488Z,101429.05
2019-05-23T00:06:31.603Z,101424.81
2019-05-23T00:09:03.819Z,101422.02
2019-05-23T00:11:57.449Z,101421.45
2019-05-23T00:14:46.840Z,101424.59
2019-05-23T00:17:20.953Z,101422.37
2019-05-23T00:19:52.532Z,101427.69
2019-05-23T00:22:23.779Z,101433.00
2019-05-23T00:24:56.180Z,101429.02
2019-05-23T00:27:27.579Z,101427.81
2019-05-23T00:30:01.382Z,101433.05
2019-05-23T00:32:38.883Z,101432.77
2019-05-23T00:35:12.564Z,101434.44
2019-05-23T00:37:46.663Z,101437.10
2019-05-23T00:40:19.598Z,101431.97
2019-05-23T00:42:52.016Z,101431.53
2019-05-23T00:45:24.367Z,101430.13
2019-05-23T00:47:57.550Z,101428.71
2019-05-23T00:50:30.236Z,101428.88
2019-05-23T00:53:02.401Z,101421.47
2019-05-23T00:55:35.279Z,101426.14
2019-05-23T00:58:08.123Z,101418.94
2019-05-23T01:00:40.555Z,101427.33
2019-05-23T01:03:13.546Z,101418.04
2019-05-23T01:05:45.052Z,101417.66
2019-05-23T01:08:17.241Z,101419.28
2019-05-23T01:10:50.066Z,101418.50
2019-05-23T01:13:23.820Z,101418.42
2019-05-23T01:15:56.924Z,101418.97
2019-05-23T01:18:28.291Z,101417.46
2019-05-23T01:21:18.916Z,101422.33
2019-05-23T01:23:57.968Z,101418.61
2019-05-23T01:26:30.590Z,101412.48
2019-05-23T01:29:02.269Z,101413.08
2019-05-23T01:31:38.100Z,101405.16
2019-05-23T01:34:11.847Z,101413.16
2019-05-23T01:36:43.887Z,101411.48
2019-05-23T01:39:15.585Z,101410.91
2019-05-23T01:41:46.900Z,101408.86
2019-05-23T01:44:18.802Z,101404.19
2019-05-23T01:46:50.668Z,101405.77
2019-05-23T01:49:22.522Z,101403.75
2019-05-23T01:51:54.091Z,101403.02
2019-05-23T01:54:25.578Z,101392.48
2019-05-23T01:56:57.045Z,101400.91
2019-05-23T01:59:28.677Z,101401.12
2019-05-23T02:02:00.254Z,101398.79
2019-05-23T02:04:32.213Z,101391.09
2019-05-23T02:07:03.568Z,101393.45
2019-05-23T02:09:34.993Z,101398.79
2019-05-23T02:12:12.082Z,101398.81
2019-05-23T02:14:46.177Z,101398.59
2019-05-23T02:17:17.399Z,101388.62
2019-05-23T02:19:49.616Z,101386.50
2019-05-23T02:22:21.422Z,101383.77
2019-05-23T02:24:53.661Z,101384.73
2019-05-23T02:27:27.126Z,101376.47
2019-05-23T02:29:58.552Z,101375.61
2019-05-23T02:32:31.270Z,101371.63
2019-05-23T02:35:03.872Z,101370.09
2019-05-23T02:37:50.791Z,101367.62
2019-05-23T02:40:30.235Z,101367.88
2019-05-23T02:43:04.985Z,101364.02
2019-05-23T02:45:43.596Z,101368.00
2019-05-23T02:48:22.126Z,101365.75
2019-05-23T02:51:00.193Z,101362.78
2019-05-23T02:53:35.654Z,101363.66
2019-05-23T02:56:11.982Z,101362.80
2019-05-23T02:59:10.381Z,101367.28
2019-05-23T03:02:33.238Z,101365.23
2019-05-23T03:05:07.140Z,101369.37
2019-05-23T03:07:40.282Z,101368.83
2019-05-23T03:10:13.869Z,101367.50
2019-05-23T03:12:46.645Z,101369.91
2019-05-23T03:15:19.648Z,101365.42
2019-05-23T03:17:57.113Z,101363.10
2019-05-23T03:20:30.937Z,101367.03
2019-05-23T03:23:11.977Z,101361.73
2019-05-23T03:26:55.750Z,101360.00
2019-05-23T03:29:28.879Z,101355.33
2019-05-23T03:32:12.243Z,101354.88
2019-05-23T03:34:45.294Z,101354.53
2019-05-23T03:37:17.825Z,101344.11
2019-05-23T03:39:49.406Z,101349.86
2019-05-23T03:42:21.221Z,101345.76
2019-05-23T03:44:53.651Z,101348.75
2019-05-23T03:47:27.561Z,101348.63
2019-05-23T03:50:00.267Z,101351.98
2019-05-23T03:52:33.143Z,101351.73
2019-05-23T03:55:07.041Z,101346.53
2019-05-23T03:57:39.468Z,101344.67
2019-05-23T04:00:16.214Z,101347.39
2019-05-23T04:02:49.033Z,101348.28
2019-05-23T04:05:22.398Z,101351.44
2019-05-23T04:07:53.507Z,101345.13
2019-05-23T04:10:25.022Z,101348.05
2019-05-23T04:12:56.659Z,101342.54
2019-05-23T04:15:28.726Z,101346.06
2019-05-23T04:18:00.108Z,101340.41
2019-05-23T04:20:31.973Z,101347.64
2019-05-23T04:23:04.561Z,101342.89
2019-05-23T04:25:35.946Z,101342.15
2019-05-23T04:28:07.428Z,101334.69
2019-05-23T04:30:38.542Z,101342.64
2019-05-23T04:33:10.649Z,101348.31
2019-05-23T04:35:41.910Z,101342.29
2019-05-23T04:38:13.231Z,101344.24
2019-05-23T04:40:44.561Z,101335.42
2019-05-23T04:43:16.052Z,101334.64
2019-05-23T04:45:47.934Z,101335.08
2019-05-23T04:48:19.823Z,101336.14
2019-05-23T04:50:51.182Z,101332.55
2019-05-23T04:53:22.821Z,101337.02
2019-05-23T04:55:55.152Z,101335.30
2019-05-23T04:58:26.822Z,101334.63
2019-05-23T05:01:04.523Z,101341.14
2019-05-23T05:03:36.876Z,101342.23
2019-05-23T05:06:08.269Z,101346.59
2019-05-23T05:08:39.945Z,101341.28
2019-05-23T05:11:11.518Z,101334.45
2019-05-23T05:13:44.367Z,101340.73
2019-05-23T05:16:15.906Z,101346.50
2019-05-23T05:18:47.293Z,101339.45
2019-05-23T05:21:18.965Z,101343.58
2019-05-23T05:23:50.341Z,101338.13
2019-05-23T05:26:29.264Z,101338.70
2019-05-23T05:29:06.125Z,101339.32
2019-05-23T05:31:37.274Z,101341.09
2019-05-23T05:34:10.889Z,101341.38
2019-05-23T05:36:42.288Z,101342.66
2019-05-23T05:39:14.250Z,101352.43
2019-05-23T05:41:45.764Z,101344.45
2019-05-23T05:44:17.300Z,101349.34
2019-05-23T05:46:49.009Z,101345.19
2019-05-23T05:49:20.312Z,101348.79
2019-05-23T05:51:51.601Z,101340.70
2019-05-23T05:54:23.321Z,101343.94
2019-05-23T05:56:54.546Z,101347.70
2019-05-23T05:59:25.861Z,101339.66
2019-05-23T06:01:57.979Z,101346.56
2019-05-23T06:04:29.253Z,101350.42
2019-05-23T06:07:25.820Z,101345.05
2019-05-23T06:09:58.685Z,101352.77
2019-05-23T06:12:30.232Z,101352.88
2019-05-23T06:15:01.479Z,101353.50
2019-05-23T06:17:33.128Z,101352.37
2019-05-23T06:20:04.969Z,101351.94
2019-05-23T06:22:37.281Z,101354.58
2019-05-23T06:27:42.598Z,101354.20
2019-05-23T06:30:17.682Z,101357.72
2019-05-23T06:32:49.218Z,101352.56
2019-05-23T06:35:21.049Z,101355.34
2019-05-23T06:37:52.922Z,101354.95
2019-05-23T06:40:24.482Z,101350.66
2019-05-23T06:42:55.975Z,101353.63
2019-05-23T06:45:27.785Z,101350.50
2019-05-23T06:47:59.652Z,101351.36
2019-05-23T06:50:31.318Z,101351.48
2019-05-23T06:53:02.941Z,101348.52
2019-05-23T06:55:34.357Z,101348.22
2019-05-23T06:58:06.936Z,101354.84
2019-05-23T07:00:39.199Z,101345.50
2019-05-23T07:03:10.574Z,101348.86
2019-05-23T07:05:43.335Z,101354.77
2019-05-23T07:08:14.701Z,101356.27
2019-05-23T07:10:46.056Z,101349.52
2019-05-23T07:13:17.964Z,101349.50
2019-05-23T07:15:49.254Z,101351.23
2019-05-23T07:18:20.473Z,101346.39
2019-05-23T07:20:51.688Z,101345.09
2019-05-23T07:23:23.411Z,101351.59
2019-05-23T07:25:54.719Z,101350.39
2019-05-23T07:28:26.140Z,101347.54
2019-05-23T07:30:58.034Z,101341.59
2019-05-23T07:33:29.505Z,101344.90
2019-05-23T07:36:00.979Z,101347.05
2019-05-23T07:38:32.231Z,101356.84
2019-05-23T07:41:03.997Z,101347.18
2019-05-23T07:43:35.289Z,101342.95
2019-05-23T07:46:07.194Z,101349.92
2019-05-23T07:48:39.168Z,101345.28
2019-05-23T07:51:10.725Z,101356.94
2019-05-23T07:53:59.719Z,101352.17
2019-05-23T07:56:33.555Z,101354.28
2019-05-23T07:59:05.564Z,101347.45
2019-05-23T08:01:39.238Z,101350.48
2019-05-23T08:04:21.410Z,101347.22
2019-05-23T08:06:48.960Z,101349.98
2019-05-23T08:09:20.115Z,101351.63
2019-05-23T08:11:51.612Z,101342.41
2019-05-23T08:14:22.879Z,101337.59
2019-05-23T08:16:54.973Z,101338.48
2019-05-23T08:19:26.506Z,101344.88
2019-05-23T08:21:57.881Z,101342.42
2019-05-23T08:24:29.576Z,101340.83
2019-05-23T08:27:02.160Z,101345.30
2019-05-23T08:29:33.307Z,101343.58
2019-05-23T08:32:04.859Z,101339.64
2019-05-23T08:34:41.432Z,101334.94
2019-05-23T08:37:11.797Z,101337.67
2019-05-23T08:39:43.333Z,101339.50
2019-05-23T08:42:15.495Z,101337.47
2019-05-23T08:44:48.782Z,101338.95
2019-05-23T08:47:20.011Z,101334.45
2019-05-23T08:49:51.378Z,101330.39
2019-05-23T08:52:22.772Z,101332.72
2019-05-23T08:54:59.983Z,101330.50
2019-05-23T08:57:31.381Z,101322.20
2019-05-23T09:00:02.730Z,101324.52
2019-05-23T09:02:35.339Z,101325.32
2019-05-23T09:05:08.628Z,101323.91
2019-05-23T09:07:39.994Z,101323.14
2019-05-23T09:10:11.335Z,101330.52
2019-05-23T09:12:42.831Z,101323.56
2019-05-23T09:15:14.969Z,101324.52
2019-05-23T09:17:53.175Z,101319.11
2019-05-23T09:20:19.682Z,101326.73
2019-05-23T09:22:53.646Z,101314.77
2019-05-23T09:25:24.985Z,101321.80
2019-05-23T09:27:56.359Z,101312.64
2019-05-23T09:30:28.623Z,101306.75
2019-05-23T09:33:00.011Z,101306.08
2019-05-23T09:35:31.634Z,101310.95
2019-05-23T09:38:03.170Z,101310.34
2019-05-23T09:40:35.339Z,101308.82
2019-05-23T09:43:08.005Z,101303.69
2019-05-23T09:45:39.242Z,101313.37
2019-05-23T09:48:10.657Z,101309.80
2019-05-23T09:50:42.023Z,101305.09
2019-05-23T09:53:13.745Z,101302.22
2019-05-23T09:55:45.248Z,101304.28
2019-05-23T09:58:16.561Z,101301.89
2019-05-23T10:00:47.989Z,101301.28
2019-05-23T10:03:19.928Z,101298.64
2019-05-23T10:05:54.490Z,101291.48
2019-05-23T10:08:25.770Z,101295.75
2019-05-23T10:10:59.961Z,101287.66
2019-05-23T10:13:38.935Z,101283.92
2019-05-23T10:16:07.247Z,101288.70
2019-05-23T10:18:39.102Z,101293.72
2019-05-23T10:21:10.952Z,101287.88
2019-05-23T10:23:42.179Z,101283.85
2019-05-23T10:26:14.176Z,101277.52
2019-05-23T10:28:45.435Z,101273.61
2019-05-23T10:31:17.285Z,101269.55
2019-05-23T10:33:48.528Z,101265.68
2019-05-23T10:36:20.423Z,101271.40
2019-05-23T10:38:51.651Z,101262.75
2019-05-23T10:41:23.042Z,101256.05
2019-05-23T10:43:55.874Z,101256.32
2019-05-23T10:46:27.239Z,101259.69
2019-05-23T10:49:01.115Z,101257.91
2019-05-23T10:51:32.349Z,101254.05
2019-05-23T10:54:04.544Z,101251.33
2019-05-23T10:56:36.002Z,101245.78
2019-05-23T10:59:07.579Z,101242.09
2019-05-23T11:01:39.699Z,101238.66
2019-05-23T11:04:11.167Z,101242.14
2019-05-23T11:06:43.251Z,101239.19
2019-05-23T11:09:14.918Z,101233.84
2019-05-23T11:11:46.310Z,101229.48
2019-05-23T11:14:17.708Z,101220.80
2019-05-23T11:16:49.079Z,101214.64
2019-05-23T11:19:20.807Z,101218.58
2019-05-23T11:21:52.021Z,101220.13
2019-05-23T11:24:23.506Z,101222.45
2019-05-23T11:26:57.249Z,101221.58
2019-05-23T11:29:28.499Z,101216.52
2019-05-23T11:32:01.610Z,101212.94
2019-05-23T11:34:34.323Z,101209.66
2019-05-23T11:37:05.739Z,101210.31
2019-05-23T11:39:41.949Z,101210.79
2019-05-23T11:42:10.740Z,101207.95
2019-05-23T11:44:41.970Z,101208.60
2019-05-23T11:47:14.338Z,101205.23
2019-05-23T11:49:49.306Z,101202.72
2019-05-23T11:52:20.669Z,101206.30
2019-05-23T11:54:52.308Z,101201.00
2019-05-23T11:57:26.596Z,101197.22
2019-05-23T12:00:10.556Z,101197.17
2019-05-23T12:02:43.231Z,101190.56
2019-05-23T12:05:21.866Z,101189.69
2019-05-23T12:07:53.242Z,101186.70
2019-05-23T12:10:24.564Z,101182.84
2019-05-23T12:12:55.915Z,101180.13
2019-05-23T12:15:28.934Z,101191.01
2019-05-23T12:18:03.184Z,101184.27
2019-05-23T12:20:34.408Z,101180.68
2019-05-23T12:23:10.681Z,101189.18
2019-05-23T12:25:39.067Z,101180.45
2019-05-23T12:28:11.912Z,101183.08
2019-05-23T12:30:43.613Z,101180.60
2019-05-23T12:33:15.314Z,101180.18
2019-05-23T12:35:46.520Z,101172.94
2019-05-23T12:38:17.800Z,101173.01
2019-05-23T12:40:49.032Z,101166.59
2019-05-23T12:43:20.202Z,101161.30
2019-05-23T12:45:51.431Z,101166.42
2019-05-23T12:48:34.532Z,101170.88
2019-05-23T12:51:06.322Z,101156.66
2019-05-23T12:53:37.791Z,101148.26
2019-05-23T12:56:09.368Z,101149.95
2019-05-23T12:58:41.644Z,101147.20
2019-05-23T13:01:14.786Z,101153.98
2019-05-23T13:03:46.815Z,101154.20
2019-05-23T13:06:18.376Z,101156.89
2019-05-23T13:08:49.727Z,101144.20
2019-05-23T13:11:21.073Z,101145.37
2019-05-23T13:13:52.305Z,101144.54
2019-05-23T13:16:23.600Z,101136.64
2019-05-23T13:18:54.721Z,101136.61
2019-05-23T13:21:26.133Z,101136.55
2019-05-23T13:23:57.452Z,101128.45
2019-05-23T13:26:29.779Z,101121.98
2019-05-23T13:29:01.154Z,101119.28
2019-05-23T13:31:32.498Z,101114.87
2019-05-23T13:34:06.668Z,101122.23
2019-05-23T13:36:37.961Z,101116.81
2019-05-23T13:39:13.484Z,101116.98
2019-05-23T13:41:44.967Z,101122.27
2019-05-23T13:44:32.879Z,101122.20
2019-05-23T13:46:49.247Z,101122.92
2019-05-23T13:49:24.832Z,101118.56
2019-05-23T13:51:56.268Z,101121.41
2019-05-23T13:54:27.680Z,101118.70
2019-05-23T13:56:59.901Z,101117.34
2019-05-23T13:59:34.448Z,101112.32
2019-05-23T14:02:10.701Z,101111.20
2019-05-23T14:04:42.342Z,101113.14
2019-05-23T14:07:15.186Z,101109.45
2019-05-23T14:09:46.666Z,101105.95
2019-05-23T14:12:21.155Z,101102.67
2019-05-23T14:14:51.173Z,101103.70
2019-05-23T14:17:39.718Z,101096.52
2019-05-23T14:20:11.284Z,101093.50
2019-05-23T14:22:47.620Z,101087.01
2019-05-23T14:25:22.226Z,101089.70
2019-05-23T14:28:12.246Z,101091.36
2019-05-23T14:31:01.056Z,101085.84
2019-05-23T14:34:03.467Z,101084.64
2019-05-23T14:36:52.406Z,101089.73
2019-05-23T14:39:36.233Z,101085.11
2019-05-23T14:42:26.298Z,101076.41
2019-05-23T14:44:58.347Z,101074.11
2019-05-23T14:48:03.397Z,101070.73
2019-05-23T14:51:05.383Z,101076.08
2019-05-23T14:53:39.345Z,101071.92
2019-05-23T14:56:12.066Z,101074.94
2019-05-23T14:58:43.512Z,101070.50
2019-05-23T15:01:18.369Z,101075.75
2019-05-23T15:03:50.136Z,101069.06
2019-05-23T15:06:21.498Z,101069.90
2019-05-23T15:08:52.933Z,101074.05
2019-05-23T15:11:24.175Z,101068.29
2019-05-23T15:13:56.051Z,101063.75
2019-05-23T15:16:27.600Z,101058.44
2019-05-23T15:19:01.962Z,101052.64
2019-05-23T15:21:33.227Z,101055.44
2019-05-23T15:24:04.654Z,101066.23
2019-05-23T15:26:36.136Z,101062.16
2019-05-23T15:29:08.073Z,101052.73
2019-05-23T15:31:39.476Z,101048.89
2019-05-23T15:34:10.840Z,101050.05
2019-05-23T15:36:42.166Z,101057.00
2019-05-23T15:39:13.431Z,101055.42
2019-05-23T15:41:44.726Z,101053.13
2019-05-23T15:44:26.666Z,101055.52
2019-05-23T15:46:52.194Z,101055.31
2019-05-23T15:49:23.645Z,101048.78
2019-05-23T15:52:12.933Z,101042.39
2019-05-23T15:54:57.669Z,101045.48
2019-05-23T15:57:44.905Z,101035.88
2019-05-23T16:00:33.935Z,101026.62
2019-05-23T16:03:23.955Z,101031.56
2019-05-23T16:05:56.127Z,101033.00
2019-05-23T16:08:27.863Z,101032.75
2019-05-23T16:10:59.933Z,101029.75
2019-05-23T16:13:31.561Z,101029.34
2019-05-23T16:16:04.126Z,101029.87
2019-05-23T16:18:36.087Z,101029.00
2019-05-23T16:21:07.343Z,101033.11
2019-05-23T16:23:38.737Z,101036.87
2019-05-23T16:26:11.775Z,101032.41
2019-05-23T16:28:43.277Z,101035.45
2019-05-23T16:31:15.846Z,101033.21
2019-05-23T16:33:47.122Z,101026.18
2019-05-23T16:36:22.707Z,101038.57
2019-05-23T16:38:54.260Z,101031.33
2019-05-23T16:41:34.890Z,101033.42
2019-05-23T16:44:25.476Z,101033.34
2019-05-23T16:47:03.508Z,101032.50
2019-05-23T16:49:35.195Z,101028.34
2019-05-23T16:52:07.148Z,101023.61
2019-05-23T16:54:42.670Z,101024.45
2019-05-23T16:57:31.968Z,101023.64
2019-05-23T17:00:34.282Z,101028.43
2019-05-23T17:03:27.072Z,101028.16
2019-05-23T17:06:23.085Z,101029.73
2019-05-23T17:09:13.115Z,101030.58
2019-05-23T17:11:56.004Z,101025.17
2019-05-23T17:14:32.450Z,101025.60
2019-05-23T17:17:39.439Z,101026.75
2019-05-23T17:20:26.694Z,101021.87
2019-05-23T17:23:20.060Z,101014.59
2019-05-23T17:25:58.359Z,101009.94
2019-05-23T17:28:39.191Z,101012.23
2019-05-23T17:31:14.130Z,101008.55
2019-05-23T17:33:46.029Z,101006.33
2019-05-23T17:36:17.703Z,101009.20
2019-05-23T17:38:49.156Z,101003.28
2019-05-23T17:41:20.871Z,101005.98
2019-05-23T17:43:53.700Z,101000.41
2019-05-23T17:46:28.353Z,100997.88
2019-05-23T17:48:59.746Z,101003.28
2019-05-23T17:51:31.303Z,100998.30
2019-05-23T17:54:05.830Z,101006.13
2019-05-23T17:56:37.294Z,101010.61
2019-05-23T17:59:12.070Z,101007.61
2019-05-23T18:01:44.045Z,101005.73
2019-05-23T18:04:16.209Z,101003.06
2019-05-23T18:07:01.204Z,101005.33
2019-05-23T18:09:33.397Z,101008.53
2019-05-23T18:12:07.331Z,101010.69
2019-05-23T18:14:39.348Z,101013.20
2019-05-23T18:17:13.247Z,101003.07
2019-05-23T18:19:45.228Z,101009.05
2019-05-23T18:22:17.446Z,101013.19
2019-05-23T18:24:49.165Z,101009.86
2019-05-23T18:27:20.958Z,101014.25
2019-05-23T18:29:53.204Z,101022.62
2019-05-23T18:32:26.819Z,101018.70
2019-05-23T18:34:58.741Z,101014.25
2019-05-23T18:37:30.245Z,101013.60
2019-05-23T18:40:02.647Z,101017.16
2019-05-23T18:42:36.286Z,101018.62
2019-05-23T18:45:09.847Z,101022.16
2019-05-23T18:47:45.114Z,101024.66
2019-05-23T18:50:19.095Z,101031.98
2019-05-23T18:52:52.097Z,101031.23
2019-05-23T18:55:24.467Z,101030.09
2019-05-23T18:57:57.201Z,101030.58
2019-05-23T19:01:20.496Z,101023.84
2019-05-23T19:03:52.666Z,101024.48
2019-05-23T19:06:24.447Z,101029.80
2019-05-23T19:08:56.908Z,101038.75
2019-05-23T19:11:28.801Z,101042.33
2019-05-23T19:14:01.985Z,101045.44
2019-05-23T19:16:35.732Z,101047.84
2019-05-23T19:19:08.331Z,101046.50
2019-05-23T19:21:40.704Z,101049.32
2019-05-23T19:24:12.291Z,101044.79
2019-05-23T19:26:44.824Z,101041.93
2019-05-23T19:29:18.158Z,101043.23
2019-05-23T19:31:49.675Z,101049.77
2019-05-23T19:34:21.469Z,101051.10
2019-05-23T19:36:52.658Z,101055.66
2019-05-23T19:39:26.891Z,101054.20
2019-05-23T19:41:58.293Z,101059.04
2019-05-23T19:44:30.163Z,101062.14
2019-05-23T19:47:03.653Z,101058.78
2019-05-23T19:49:36.958Z,101067.55
2019-05-23T19:52:08.877Z,101076.42
2019-05-23T19:54:40.527Z,101071.77
2019-05-23T19:57:12.194Z,101070.11
2019-05-23T19:59:43.663Z,101070.48
2019-05-23T20:02:43.004Z,101068.92
2019-05-23T20:05:21.251Z,101080.39
2019-05-23T20:07:52.642Z,101090.25
2019-05-23T20:10:24.157Z,101084.01
2019-05-23T20:12:55.460Z,101081.73
2019-05-23T20:15:26.969Z,101083.58
2019-05-23T20:17:58.256Z,101092.28
2019-05-23T20:20:30.099Z,101083.47
2019-05-23T20:23:01.580Z,101081.22
2019-05-23T20:25:34.062Z,101079.33
2019-05-23T20:28:05.957Z,101073.94
2019-05-23T20:31:03.877Z,101084.48
2019-05-23T20:33:35.630Z,101074.70
2019-05-23T20:36:12.777Z,101074.16
2019-05-23T20:38:46.380Z,101073.90
2019-05-23T20:41:18.398Z,101080.24
2019-05-23T20:43:49.736Z,101080.10
2019-05-23T20:46:21.216Z,101083.09
2019-05-23T20:48:52.463Z,101078.77
2019-05-23T20:51:25.342Z,101079.57
2019-05-23T20:53:56.502Z,101077.25
2019-05-23T20:56:31.025Z,101080.62
2019-05-23T20:59:02.286Z,101074.65
2019-05-23T21:01:38.306Z,101074.18
2019-05-23T21:04:09.643Z,101073.54
2019-05-23T21:06:40.894Z,101071.76
2019-05-23T21:09:15.556Z,101069.59
2019-05-23T21:11:45.504Z,101070.00
2019-05-23T21:14:17.042Z,101066.00
2019-05-23T21:16:51.318Z,101069.02
2019-05-23T21:19:22.654Z,101073.56
2019-05-23T21:21:54.077Z,101072.27
2019-05-23T21:24:25.526Z,101080.84
2019-05-23T21:26:57.092Z,101077.87
2019-05-23T21:29:28.368Z,101075.39
2019-05-23T21:31:59.690Z,101076.09
2019-05-23T21:34:33.191Z,101068.58
2019-05-23T21:37:04.782Z,101071.95
2019-05-23T21:39:36.176Z,101071.47
2019-05-23T21:42:07.531Z,101070.14
2019-05-23T21:44:38.894Z,101067.48
2019-05-23T21:47:10.418Z,101065.19
2019-05-23T21:49:41.882Z,101068.21
2019-05-23T21:52:22.983Z,101067.91
2019-05-23T21:54:54.459Z,101066.06
2019-05-23T21:57:25.918Z,101065.26
2019-05-23T21:59:57.879Z,101062.42
2019-05-23T22:02:33.847Z,101068.26
2019-05-23T22:05:17.814Z,101063.75
2019-05-23T22:07:49.340Z,101063.44
2019-05-23T22:10:20.784Z,101057.94
2019-05-23T22:13:03.797Z,101060.78
2019-05-23T22:15:39.246Z,101053.13
2019-05-23T22:18:10.528Z,101051.63
2019-05-23T22:20:41.779Z,101051.79
2019-05-23T22:23:13.474Z,101049.44
2019-05-23T22:25:44.747Z,101054.94
2019-05-23T22:28:16.444Z,101053.09
2019-05-23T22:30:47.646Z,101059.97
2019-05-23T22:33:21.119Z,101054.95
2019-05-23T22:35:52.498Z,101051.63
2019-05-23T22:38:23.732Z,101050.30
2019-05-23T22:40:54.968Z,101053.83
2019-05-23T22:43:26.293Z,101051.48
2019-05-23T22:45:57.542Z,101046.47
2019-05-23T22:48:28.777Z,101045.98
2019-05-23T22:50:59.918Z,101043.30
2019-05-23T22:53:31.234Z,101048.32
2019-05-23T22:56:02.478Z,101044.97
2019-05-23T22:58:33.746Z,101050.47
2019-05-23T23:01:04.976Z,101051.64
2019-05-23T23:03:36.143Z,101054.00
2019-05-23T23:06:07.613Z,101052.02
2019-05-23T23:08:38.775Z,101044.00
2019-05-23T23:11:10.356Z,101041.00
2019-05-23T23:13:42.053Z,101034.69
2019-05-23T23:16:13.479Z,101039.34
2019-05-23T23:18:45.100Z,101037.32
2019-05-23T23:21:16.240Z,101032.98
2019-05-23T23:23:47.472Z,101029.99
2019-05-23T23:26:18.715Z,101033.16
2019-05-23T23:28:50.102Z,101026.67
2019-05-23T23:31:21.527Z,101031.98
2019-05-23T23:33:52.942Z,101028.17
2019-05-23T23:36:24.219Z,101028.00
2019-05-23T23:38:55.508Z,101027.36
2019-05-23T23:41:26.711Z,101020.32
2019-05-23T23:43:59.955Z,101011.66
2019-05-23T23:46:48.063Z,101017.84
2019-05-23T23:49:36.968Z,101014.52
2019-05-23T23:52:25.618Z,101010.84
2019-05-23T23:55:14.899Z,101012.85
2019-05-23T23:58:00.040Z,101008.02
